Time;durP1;ratioP1;P1;durP2;ratioP2;P2;SDS_P1;SDS_P2;PMS_P1;PMS_P2;Temp;Humidity;BMP_temperature;BMP_pressure;BME280_temperature;BME280_humidity;BME280_pressure;Samples;Min_cycle;Max_cycle;Signal;HPM_P1;HPM_P2
2021/08/05 00:00:59;;;;;;;8.13;7.43;;;;;;;18.26;66.36;101331.97;4969372;28;20214;-74
2021/08/05 00:03:26;;;;;;;8.50;7.57;;;;;;;18.36;66.10;101333.94;4968110;28;20266;-74
2021/08/05 00:05:52;;;;;;;7.43;6.73;;;;;;;18.38;65.94;101323.66;4967718;28;20220;-74
2021/08/05 00:08:20;;;;;;;8.30;7.60;;;;;;;18.36;65.71;101313.09;4966891;28;20216;-74
2021/08/05 00:10:46;;;;;;;8.63;7.83;;;;;;;18.33;66.14;101316.34;4967255;28;20220;-74
2021/08/05 00:13:13;;;;;;;8.40;7.50;;;;;;;18.39;65.71;101315.25;4970378;28;20295;-73
2021/08/05 00:15:39;;;;;;;8.20;7.50;;;;;;;18.50;65.30;101316.94;4968470;28;20220;-74
2021/08/05 00:18:06;;;;;;;8.27;7.57;;;;;;;18.42;65.30;101309.34;4968634;28;20217;-74
2021/08/05 00:20:32;;;;;;;8.60;7.83;;;;;;;18.33;65.79;101305.50;4968730;28;20628;-74
2021/08/05 00:22:58;;;;;;;9.97;8.27;;;;;;;18.40;65.57;101305.25;4967528;28;20220;-74
2021/08/05 00:25:26;;;;;;;9.07;8.27;;;;;;;18.44;65.65;101304.50;4969044;28;20216;-74
2021/08/05 00:27:53;;;;;;;8.87;7.83;;;;;;;18.48;65.42;101305.56;4970246;28;20625;-74
2021/08/05 00:30:19;;;;;;;11.17;7.83;;;;;;;18.63;65.31;101298.59;4972526;28;20761;-74
2021/08/05 00:32:45;;;;;;;8.47;7.60;;;;;;;18.54;65.27;101299.09;4971558;28;20215;-74
2021/08/05 00:35:12;;;;;;;8.53;7.63;;;;;;;18.52;65.27;101290.44;4973484;28;20265;-74
2021/08/05 00:37:38;;;;;;;9.43;8.33;;;;;;;18.45;65.78;101294.47;4969982;28;20270;-74
2021/08/05 00:40:06;;;;;;;8.97;8.07;;;;;;;18.31;65.82;101290.63;4973944;28;20290;-74
2021/08/05 00:42:34;;;;;;;8.47;7.67;;;;;;;18.19;66.66;101290.84;4971754;28;20224;-73
2021/08/05 00:45:00;;;;;;;9.07;7.57;;;;;;;18.26;66.31;101291.41;4970998;28;20737;-73
2021/08/05 00:47:28;;;;;;;7.83;7.13;;;;;;;18.20;66.53;101292.47;4971114;28;20216;-73
2021/08/05 00:49:54;;;;;;;9.03;8.23;;;;;;;18.20;66.32;101295.97;4973908;28;20227;-74
2021/08/05 00:52:21;;;;;;;10.13;8.07;;;;;;;18.08;67.00;101295.38;4971101;28;20231;-74
2021/08/05 00:54:48;;;;;;;8.77;7.97;;;;;;;18.15;66.95;101289.72;4970752;28;20240;-74
2021/08/05 00:57:14;;;;;;;11.47;8.70;;;;;;;18.06;67.07;101280.50;4972627;28;20246;-74
2021/08/05 00:59:42;;;;;;;9.60;8.70;;;;;;;17.88;67.99;101279.00;4971405;28;20715;-74
2021/08/05 01:02:11;;;;;;;9.53;8.40;;;;;;;17.87;67.97;101271.97;4969315;28;20223;-74
2021/08/05 01:04:38;;;;;;;9.50;8.50;;;;;;;17.80;68.26;101276.81;4976553;28;20259;-74
2021/08/05 01:07:09;;;;;;;10.43;9.07;;;;;;;17.88;67.86;101274.41;4970102;28;20228;-74
2021/08/05 01:09:37;;;;;;;10.17;8.53;;;;;;;17.94;67.93;101265.28;4970974;28;20231;-74
2021/08/05 01:12:07;;;;;;;9.63;8.47;;;;;;;17.88;67.99;101262.78;4970920;28;20227;-74
2021/08/05 01:14:38;;;;;;;10.53;8.73;;;;;;;17.98;67.67;101270.16;4972187;28;20267;-74
2021/08/05 01:17:08;;;;;;;9.87;8.97;;;;;;;18.10;67.04;101279.69;4973201;28;20229;-74
2021/08/05 01:19:40;;;;;;;10.23;9.13;;;;;;;18.06;67.28;101267.78;4969712;28;20332;-74
2021/08/05 01:22:11;;;;;;;10.07;9.07;;;;;;;18.15;66.87;101270.78;4966874;28;20294;-74
2021/08/05 01:24:38;;;;;;;9.87;8.87;;;;;;;18.00;67.45;101271.50;4970684;28;20239;-74
2021/08/05 01:27:06;;;;;;;10.03;8.93;;;;;;;18.12;66.90;101268.59;4971261;28;20221;-74
2021/08/05 01:29:35;;;;;;;10.70;9.07;;;;;;;18.03;67.11;101268.28;4970916;28;20278;-74
2021/08/05 01:32:03;;;;;;;10.83;9.73;;;;;;;18.05;67.33;101263.44;4970506;28;20675;-74
2021/08/05 01:34:31;;;;;;;11.90;10.70;;;;;;;18.04;67.10;101263.69;4973350;28;20239;-74
2021/08/05 01:36:58;;;;;;;10.67;9.70;;;;;;;17.96;67.04;101261.50;4969572;28;20277;-74
2021/08/05 01:39:25;;;;;;;10.47;9.40;;;;;;;17.95;67.26;101271.50;4967568;28;20220;-74
2021/08/05 01:41:51;;;;;;;10.80;9.80;;;;;;;18.06;66.99;101262.38;4970031;28;20254;-74
2021/08/05 01:44:20;;;;;;;10.30;9.30;;;;;;;18.02;67.03;101266.66;4970787;28;20215;-75
2021/08/05 01:46:48;;;;;;;11.67;10.20;;;;;;;18.00;66.86;101265.28;4970695;28;20684;-75
2021/08/05 01:49:15;;;;;;;11.00;9.90;;;;;;;18.06;66.76;101253.44;4971552;28;20776;-75
2021/08/05 01:51:42;;;;;;;9.77;8.80;;;;;;;18.01;67.33;101261.50;4971734;28;20255;-75
2021/08/05 01:54:10;;;;;;;11.37;10.30;;;;;;;17.83;67.30;101246.56;4972588;28;20238;-74
2021/08/05 01:56:36;;;;;;;11.03;10.00;;;;;;;17.70;67.85;101255.94;4967980;28;20248;-74
2021/08/05 01:59:02;;;;;;;10.83;9.83;;;;;;;17.53;68.21;101255.22;4969524;28;20267;-74
2021/08/05 02:01:30;;;;;;;10.70;9.70;;;;;;;17.33;69.22;101251.28;4967787;28;20300;-72
2021/08/05 02:04:05;;;;;;;12.00;10.90;;;;;;;17.31;69.26;101250.75;4972635;28;20237;-72
2021/08/05 02:06:33;;;;;;;11.13;10.03;;;;;;;17.41;69.09;101246.50;4969647;28;20542;-72
2021/08/05 02:09:06;;;;;;;10.83;9.63;;;;;;;17.46;68.90;101233.84;4970587;28;20227;-72
2021/08/05 02:11:35;;;;;;;11.30;10.27;;;;;;;17.39;69.27;101243.22;4970959;28;20725;-72
2021/08/05 02:14:03;;;;;;;11.03;10.00;;;;;;;17.43;69.22;101228.16;4969701;28;20243;-72
2021/08/05 02:16:31;;;;;;;11.40;10.23;;;;;;;17.38;69.60;101233.50;4968684;28;20219;-72
2021/08/05 02:18:58;;;;;;;10.63;9.63;;;;;;;17.36;69.23;101231.88;4967945;28;20228;-72
2021/08/05 02:21:27;;;;;;;10.70;9.73;;;;;;;17.19;69.61;101228.50;4970226;28;20245;-72
2021/08/05 02:23:57;;;;;;;10.20;9.30;;;;;;;17.07;70.06;101222.44;4969979;28;20214;-74
2021/08/05 02:26:24;;;;;;;10.63;9.53;;;;;;;16.99;70.19;101222.91;4970902;28;20218;-74
2021/08/05 02:28:50;;;;;;;10.50;9.50;;;;;;;16.95;70.67;101225.31;4967158;28;20866;-74
2021/08/05 02:31:17;;;;;;;11.17;10.07;;;;;;;16.95;70.32;101221.78;4968673;28;20553;-72
2021/08/05 02:33:46;;;;;;;11.47;10.37;;;;;;;16.83;71.14;101218.44;4969743;28;20245;-72
2021/08/05 02:36:12;;;;;;;10.53;9.50;;;;;;;16.74;71.38;101221.59;4969037;28;20300;-72
2021/08/05 02:38:39;;;;;;;11.07;9.97;;;;;;;16.83;70.73;101215.75;4968688;28;20210;-72
2021/08/05 02:41:06;;;;;;;11.33;10.23;;;;;;;16.84;70.69;101218.19;4969543;28;20219;-72
2021/08/05 02:43:33;;;;;;;11.40;10.23;;;;;;;16.80;70.76;101219.78;4970721;28;20217;-72
2021/08/05 02:46:00;;;;;;;12.47;10.30;;;;;;;16.82;70.70;101209.53;4970172;28;20213;-72
2021/08/05 02:48:27;;;;;;;11.33;10.33;;;;;;;16.70;71.23;101212.38;4969761;28;20214;-72
2021/08/05 02:50:56;;;;;;;15.37;11.40;;;;;;;16.69;71.01;101213.44;4968110;28;20669;-72
2021/08/05 02:53:22;;;;;;;11.97;10.73;;;;;;;16.77;70.68;101215.69;4969146;28;20237;-72
2021/08/05 02:55:49;;;;;;;10.97;9.97;;;;;;;16.81;70.49;101213.31;4968737;28;20860;-72
2021/08/05 02:58:15;;;;;;;12.10;10.53;;;;;;;16.78;69.84;101211.13;4964731;28;20251;-73
2021/08/05 03:00:43;;;;;;;11.60;10.40;;;;;;;16.80;69.96;101202.75;4970446;28;20265;-73
2021/08/05 03:03:09;;;;;;;11.33;10.20;;;;;;;16.86;69.85;101209.81;4972197;28;20286;-72
2021/08/05 03:05:36;;;;;;;12.07;10.87;;;;;;;16.82;69.75;101206.84;4967662;28;20300;-72
2021/08/05 03:08:04;;;;;;;10.77;9.77;;;;;;;16.86;70.14;101207.94;4969613;28;20213;-72
2021/08/05 03:10:30;;;;;;;11.57;10.47;;;;;;;16.82;69.82;101204.13;4965202;28;20627;-72
2021/08/05 03:12:57;;;;;;;12.67;11.47;;;;;;;16.82;70.54;101206.84;4970227;28;20672;-72
2021/08/05 03:15:23;;;;;;;11.17;10.07;;;;;;;16.80;69.76;101200.06;4967754;28;20701;-72
2021/08/05 03:17:49;;;;;;;11.20;10.20;;;;;;;16.81;69.79;101201.69;4968453;28;20669;-72
2021/08/05 03:20:16;;;;;;;10.83;9.83;;;;;;;16.68;70.37;101200.22;4969743;28;20303;-72
2021/08/05 03:22:43;;;;;;;11.43;10.40;;;;;;;16.76;70.61;101197.84;4968992;28;20216;-72
2021/08/05 03:25:11;;;;;;;12.57;10.63;;;;;;;16.76;70.02;101197.84;4968507;28;20272;-72
2021/08/05 03:27:37;;;;;;;12.47;11.27;;;;;;;16.72;69.59;101201.31;4967678;28;20249;-73
2021/08/05 03:30:05;;;;;;;12.93;11.20;;;;;;;16.57;71.09;101196.56;4967569;28;20218;-72
2021/08/05 03:32:31;;;;;;;11.77;10.63;;;;;;;16.37;71.83;101205.22;4969331;28;20219;-72
2021/08/05 03:34:58;;;;;;;13.10;11.80;;;;;;;16.47;71.25;101205.34;4967868;28;21072;-73
2021/08/05 03:37:25;;;;;;;12.73;11.23;;;;;;;16.58;70.88;101198.19;4970243;28;20213;-72
2021/08/05 03:39:51;;;;;;;12.20;11.10;;;;;;;16.48;70.98;101200.78;4970438;28;20213;-72
2021/08/05 03:42:19;;;;;;;13.20;11.80;;;;;;;16.53;71.23;101195.44;4969416;28;20255;-72
2021/08/05 03:44:45;;;;;;;12.13;10.97;;;;;;;16.63;70.00;101194.72;4968616;28;20704;-72
2021/08/05 03:47:11;;;;;;;14.20;11.47;;;;;;;16.56;69.44;101186.84;4966802;28;20217;-72
2021/08/05 03:49:38;;;;;;;13.43;12.03;;;;;;;16.49;69.96;101187.03;4966905;28;21093;-72
2021/08/05 03:52:04;;;;;;;13.03;11.77;;;;;;;16.40;69.79;101193.97;4964529;28;20767;-72
2021/08/05 03:54:31;;;;;;;12.83;11.63;;;;;;;16.38;68.31;101184.47;4967804;28;20817;-73
2021/08/05 03:56:57;;;;;;;13.20;11.50;;;;;;;16.33;68.75;101184.44;4966154;28;20604;-73
2021/08/05 03:59:25;;;;;;;14.70;12.57;;;;;;;16.38;69.46;101176.38;4966485;28;20768;-72
2021/08/05 04:01:51;;;;;;;13.83;12.50;;;;;;;16.34;70.86;101177.97;4963697;28;20217;-75
2021/08/05 04:04:17;;;;;;;14.53;13.03;;;;;;;16.35;70.61;101184.97;4968350;28;20818;-73
2021/08/05 04:06:44;;;;;;;14.00;12.60;;;;;;;16.29;71.62;101183.31;4967460;28;20614;-74
2021/08/05 04:09:10;;;;;;;13.00;11.63;;;;;;;16.34;70.10;101178.78;4967033;28;20755;-74
2021/08/05 04:11:36;;;;;;;13.53;12.13;;;;;;;16.26;72.14;101186.50;4968557;28;20615;-74
2021/08/05 04:14:03;;;;;;;14.13;12.73;;;;;;;16.33;72.32;101181.72;4967541;28;20625;-74
2021/08/05 04:16:31;;;;;;;14.90;13.27;;;;;;;16.12;73.46;101180.66;4966610;28;20272;-73
2021/08/05 04:18:57;;;;;;;14.83;13.33;;;;;;;16.16;72.82;101181.81;4964853;28;20238;-72
2021/08/05 04:21:23;;;;;;;15.67;13.50;;;;;;;16.24;71.65;101181.34;4966769;28;20217;-72
2021/08/05 04:23:50;;;;;;;16.40;13.00;;;;;;;16.16;72.40;101181.81;4965702;28;20220;-72
2021/08/05 04:26:16;;;;;;;15.10;13.53;;;;;;;16.06;73.13;101182.50;4966860;28;20213;-72
2021/08/05 04:28:43;;;;;;;15.43;13.87;;;;;;;16.19;72.45;101176.72;4965907;28;20228;-72
2021/08/05 04:31:09;;;;;;;18.27;16.37;;;;;;;16.30;72.21;101185.75;4965895;28;20518;-74
2021/08/05 04:33:37;;;;;;;16.77;15.17;;;;;;;16.36;71.86;101186.63;4973796;28;20230;-74
2021/08/05 04:36:03;;;;;;;15.03;13.60;;;;;;;16.32;71.31;101190.88;4975633;28;20237;-74
2021/08/05 04:38:30;;;;;;;16.20;14.47;;;;;;;16.28;71.55;101189.78;4972882;28;20224;-74
2021/08/05 04:40:56;;;;;;;16.17;14.50;;;;;;;16.12;72.30;101188.75;4973763;28;20225;-74
2021/08/05 04:43:22;;;;;;;14.50;13.00;;;;;;;16.12;72.40;101188.75;4970924;28;20218;-74
2021/08/05 04:45:49;;;;;;;15.07;13.50;;;;;;;16.19;72.03;101186.69;4971342;28;20214;-76
2021/08/05 04:48:15;;;;;;;15.60;13.97;;;;;;;16.15;72.04;101183.69;4971386;28;20280;-76
2021/08/05 04:50:43;;;;;;;14.63;12.90;;;;;;;16.15;72.32;101174.78;4976935;28;20213;-76
2021/08/05 04:53:12;;;;;;;18.40;13.10;;;;;;;16.16;72.56;101176.44;4977167;28;20256;-76
2021/08/05 04:55:38;;;;;;;15.53;13.60;;;;;;;16.16;72.64;101177.25;4972243;28;20776;-76
2021/08/05 04:58:06;;;;;;;15.27;13.60;;;;;;;16.25;72.16;101174.06;4973496;28;20245;-74
2021/08/05 05:00:34;;;;;;;15.30;13.80;;;;;;;16.27;72.50;101172.78;4971243;28;20222;-74
2021/08/05 05:03:01;;;;;;;13.57;12.30;;;;;;;16.38;72.19;101165.59;4976600;28;20301;-74
2021/08/05 05:05:28;;;;;;;15.60;14.00;;;;;;;16.41;72.20;101167.81;4976047;28;20234;-74
2021/08/05 05:07:58;;;;;;;15.80;14.20;;;;;;;16.49;72.08;101162.75;4976418;28;20226;-74
2021/08/05 05:10:26;;;;;;;13.50;12.20;;;;;;;16.62;72.04;101158.03;4969105;28;20286;-74
2021/08/05 05:12:52;;;;;;;14.80;13.40;;;;;;;16.72;71.77;101163.56;4974635;28;20218;-74
2021/08/05 05:15:19;;;;;;;12.90;11.60;;;;;;;16.90;71.36;101160.50;4975962;28;20244;-74
2021/08/05 05:17:46;;;;;;;14.63;13.13;;;;;;;17.10;70.45;101161.72;4976196;28;20213;-74
2021/08/05 05:20:13;;;;;;;14.07;12.77;;;;;;;17.21;69.83;101160.72;4978659;28;20231;-74
2021/08/05 05:22:40;;;;;;;13.87;12.57;;;;;;;17.32;69.96;101157.84;4976873;28;20215;-74
2021/08/05 05:25:11;;;;;;;13.93;11.93;;;;;;;17.47;69.58;101159.00;4975565;28;20210;-74
2021/08/05 05:27:37;;;;;;;14.40;13.10;;;;;;;17.45;69.54;101155.75;4976665;28;20293;-77
2021/08/05 05:30:05;;;;;;;13.30;12.10;;;;;;;17.62;69.41;101159.09;4978433;28;20218;-77
2021/08/05 05:32:32;;;;;;;13.83;12.60;;;;;;;17.27;70.17;101160.50;4977599;28;20223;-75
2021/08/05 05:34:58;;;;;;;13.37;12.00;;;;;;;17.10;71.13;101164.41;4974418;28;20704;-74
2021/08/05 05:37:25;;;;;;;12.50;11.20;;;;;;;17.23;71.02;101161.28;4975761;28;20221;-74
2021/08/05 05:39:52;;;;;;;13.20;11.93;;;;;;;17.46;70.32;101163.59;4972928;28;20219;-74
2021/08/05 05:42:22;;;;;;;12.93;11.40;;;;;;;17.41;70.87;101160.06;4977392;28;20267;-74
2021/08/05 05:44:49;;;;;;;13.50;12.20;;;;;;;17.48;70.68;101163.34;4973463;28;20233;-74
2021/08/05 05:47:15;;;;;;;14.37;12.87;;;;;;;17.67;70.27;101166.44;4975274;28;20209;-75
2021/08/05 05:49:42;;;;;;;12.53;11.43;;;;;;;17.73;70.10;101162.69;4974127;28;20251;-76
2021/08/05 05:52:09;;;;;;;13.20;12.00;;;;;;;18.17;68.72;101161.28;4973956;28;20232;-76
2021/08/05 05:54:35;;;;;;;12.20;10.90;;;;;;;18.24;68.50;101161.03;4975303;28;20223;-76
2021/08/05 05:57:02;;;;;;;12.83;11.47;;;;;;;18.40;67.71;101157.28;4980902;28;20339;-77
2021/08/05 05:59:29;;;;;;;11.90;10.70;;;;;;;18.70;67.89;101161.16;4975008;28;20215;-77
2021/08/05 06:01:56;;;;;;;12.30;10.80;;;;;;;18.79;67.22;101157.63;4978603;28;20374;-77
2021/08/05 06:04:22;;;;;;;11.70;10.67;;;;;;;19.11;66.03;101151.94;4972706;28;20236;-75
2021/08/05 06:06:49;;;;;;;12.07;10.87;;;;;;;19.16;65.84;101150.31;4975230;28;20210;-75
2021/08/05 06:09:15;;;;;;;11.93;10.73;;;;;;;19.13;65.92;101154.38;4976481;28;20217;-76
2021/08/05 06:11:42;;;;;;;13.20;11.80;;;;;;;19.06;66.57;101157.38;4975370;28;20209;-75
2021/08/05 06:14:08;;;;;;;11.53;10.43;;;;;;;19.42;64.57;101151.91;4974064;28;20216;-77
2021/08/05 06:16:36;;;;;;;11.40;10.40;;;;;;;19.24;65.61;101153.28;4971967;28;20612;-77
2021/08/05 06:19:03;;;;;;;13.27;11.27;;;;;;;19.16;66.06;101153.03;4974828;28;20274;-77
2021/08/05 06:21:29;;;;;;;12.20;11.03;;;;;;;19.34;65.28;101155.19;4972225;28;20259;-77
2021/08/05 06:23:56;;;;;;;12.27;11.07;;;;;;;19.45;65.21;101158.69;4972471;28;20256;-77
2021/08/05 06:26:23;;;;;;;11.83;10.83;;;;;;;19.46;64.82;101163.03;4975202;28;20217;-77
2021/08/05 06:28:49;;;;;;;12.87;11.67;;;;;;;19.49;65.48;101163.28;4976576;28;20227;-78
2021/08/05 06:31:18;;;;;;;11.87;10.87;;;;;;;20.03;63.47;101165.31;4971515;28;20261;-77
2021/08/05 06:33:47;;;;;;;12.73;11.60;;;;;;;19.97;64.32;101163.72;4973282;28;20233;-78
2021/08/05 06:36:14;;;;;;;12.80;11.60;;;;;;;20.08;63.71;101164.50;4970448;28;20332;-77
2021/08/05 06:38:40;;;;;;;12.80;11.60;;;;;;;20.26;63.05;101161.13;4970155;28;20217;-77
2021/08/05 06:41:07;;;;;;;13.07;11.97;;;;;;;19.89;63.89;101164.28;4970657;28;20684;-76
2021/08/05 06:43:33;;;;;;;13.00;11.77;;;;;;;20.53;62.19;101166.97;4970233;28;20271;-77
2021/08/05 06:46:00;;;;;;;12.97;11.77;;;;;;;20.70;61.08;101166.56;4969361;28;20223;-77
2021/08/05 06:48:26;;;;;;;12.77;11.57;;;;;;;21.07;60.00;101166.00;4969991;28;20231;-77
2021/08/05 06:50:54;;;;;;;12.27;11.23;;;;;;;20.85;61.05;101171.91;4973662;28;20221;-77
2021/08/05 06:53:21;;;;;;;13.37;12.07;;;;;;;20.88;60.85;101165.09;4970760;28;20238;-78
2021/08/05 06:55:47;;;;;;;13.27;12.17;;;;;;;20.54;61.07;101157.72;4969866;28;20250;-76
2021/08/05 06:58:14;;;;;;;13.40;12.20;;;;;;;21.03;61.80;101156.81;4971770;28;20248;-76
2021/08/05 07:00:41;;;;;;;12.43;11.23;;;;;;;20.93;61.90;101156.91;4970297;28;21172;-76
2021/08/05 07:03:07;;;;;;;13.97;12.67;;;;;;;20.79;60.89;101155.94;4968138;28;20216;-76
2021/08/05 07:05:33;;;;;;;12.50;11.40;;;;;;;20.95;60.68;101159.31;4970450;28;20311;-76
2021/08/05 07:08:02;;;;;;;12.60;11.40;;;;;;;21.21;60.67;101149.03;4967226;28;20350;-76
2021/08/05 07:10:28;;;;;;;11.83;10.73;;;;;;;21.55;60.14;101157.16;4968045;28;20279;-75
2021/08/05 07:12:54;;;;;;;13.03;11.60;;;;;;;21.41;59.44;101155.13;4972335;28;20209;-75
2021/08/05 07:15:21;;;;;;;10.87;9.87;;;;;;;22.01;58.47;101150.09;4971174;28;20785;-77
2021/08/05 07:17:47;;;;;;;11.73;10.83;;;;;;;22.50;56.32;101159.81;4969755;28;20576;-77
2021/08/05 07:20:15;;;;;;;12.93;11.83;;;;;;;21.87;56.54;101149.19;4967126;28;20262;-77
2021/08/05 07:22:42;;;;;;;13.97;12.67;;;;;;;21.18;59.47;101145.00;4967269;28;20295;-77
2021/08/05 07:25:12;;;;;;;14.10;12.90;;;;;;;21.02;59.98;101152.47;4966970;28;20228;-77
2021/08/05 07:27:41;;;;;;;13.77;12.57;;;;;;;21.02;60.15;101154.38;4966242;28;20221;-77
2021/08/05 07:30:09;;;;;;;12.93;11.73;;;;;;;21.32;60.61;101143.25;4967891;28;20747;-77
2021/08/05 07:32:36;;;;;;;12.30;11.20;;;;;;;21.99;58.77;101140.59;4969840;28;20209;-77
2021/08/05 07:35:03;;;;;;;12.27;11.23;;;;;;;22.36;59.01;101136.31;4966415;28;20240;-77
2021/08/05 07:37:29;;;;;;;12.90;11.70;;;;;;;22.26;56.64;101134.56;4967312;28;20220;-77
2021/08/05 07:39:56;;;;;;;12.63;11.33;;;;;;;22.64;55.59;101137.25;4970475;28;20221;-77
2021/08/05 07:42:24;;;;;;;12.33;11.33;;;;;;;22.96;53.45;101134.56;4969739;28;20548;-77
2021/08/05 07:44:50;;;;;;;13.17;11.90;;;;;;;22.54;54.64;101130.88;4968633;28;20583;-77
2021/08/05 07:47:16;;;;;;;12.00;10.93;;;;;;;23.49;53.91;101134.97;4971169;28;20241;-78
2021/08/05 07:49:43;;;;;;;11.70;10.80;;;;;;;23.66;54.15;101128.16;4970833;28;20245;-78
2021/08/05 07:52:10;;;;;;;11.30;10.07;;;;;;;23.97;50.90;101117.38;4970730;28;20602;-78
2021/08/05 07:54:37;;;;;;;11.33;10.27;;;;;;;22.62;55.52;101134.84;4971601;28;20210;-78
2021/08/05 07:57:04;;;;;;;11.37;10.27;;;;;;;21.95;55.96;101123.22;4970163;28;20586;-78
2021/08/05 07:59:32;;;;;;;11.13;10.03;;;;;;;22.90;55.62;101128.41;4968163;28;20217;-77
2021/08/05 08:01:59;;;;;;;11.43;10.43;;;;;;;23.86;52.62;101121.44;4965932;28;20318;-77
2021/08/05 08:04:25;;;;;;;10.97;9.87;;;;;;;24.14;50.70;101105.81;4968069;28;20241;-76
2021/08/05 08:06:51;;;;;;;10.10;9.20;;;;;;;22.75;52.29;101120.47;4967774;28;20870;-77
2021/08/05 08:09:18;;;;;;;10.50;9.50;;;;;;;22.41;53.54;101118.00;4967376;28;20280;-77
2021/08/05 08:11:45;;;;;;;12.77;10.63;;;;;;;23.63;52.36;101115.09;4968344;28;20268;-77
2021/08/05 08:14:12;;;;;;;10.33;9.53;;;;;;;23.66;53.34;101107.13;4967992;28;20666;-76
2021/08/05 08:16:41;;;;;;;8.33;7.73;;;;;;;23.66;49.00;101114.50;4966005;28;20850;-76
2021/08/05 08:19:08;;;;;;;8.37;7.67;;;;;;;23.18;50.75;101109.38;4966242;28;20245;-77
2021/08/05 08:21:34;;;;;;;7.17;6.57;;;;;;;23.08;50.32;101112.28;4965939;28;20214;-77
2021/08/05 08:24:01;;;;;;;9.17;8.30;;;;;;;22.96;52.20;101106.50;4968045;28;20228;-77
2021/08/05 08:26:27;;;;;;;8.73;7.90;;;;;;;24.39;49.90;101102.53;4967710;28;20219;-77
2021/08/05 08:28:53;;;;;;;7.03;6.43;;;;;;;25.00;45.88;101098.28;4969171;28;20215;-77
2021/08/05 08:31:20;;;;;;;8.37;7.67;;;;;;;24.65;47.18;101106.28;4966110;28;20207;-78
2021/08/05 08:33:48;;;;;;;6.93;6.40;;;;;;;24.30;48.33;101105.22;4969303;28;20240;-77
2021/08/05 08:36:14;;;;;;;8.37;7.17;;;;;;;24.48;48.88;101099.88;4968134;28;20253;-77
2021/08/05 08:38:42;;;;;;;6.90;6.20;;;;;;;25.26;43.82;101094.91;4970818;28;20581;-77
2021/08/05 08:41:11;;;;;;;7.80;7.20;;;;;;;23.58;48.19;101107.03;4969305;28;20211;-77
2021/08/05 08:43:37;;;;;;;7.13;6.53;;;;;;;24.39;46.69;101093.53;4967522;28;20739;-77
2021/08/05 08:46:04;;;;;;;7.27;6.57;;;;;;;25.26;45.39;101094.91;4969591;28;20217;-77
2021/08/05 08:48:30;;;;;;;8.97;8.17;;;;;;;24.86;46.72;101095.63;4973033;28;20236;-78
2021/08/05 08:51:01;;;;;;;8.23;7.43;;;;;;;24.93;45.66;101089.75;4970606;28;20227;-76
2021/08/05 08:53:36;;;;;;;11.70;8.20;;;;;;;24.85;45.49;101096.75;4972496;28;20733;-77
2021/08/05 08:56:04;;;;;;;12.20;8.30;;;;;;;25.47;44.43;101088.56;4971930;28;20876;-76
2021/08/05 08:58:31;;;;;;;10.30;9.27;;;;;;;25.58;44.19;101091.00;4973078;28;20227;-74
2021/08/05 09:00:58;;;;;;;9.50;8.70;;;;;;;25.76;44.87;101093.50;4973021;28;20862;-73
2021/08/05 09:03:24;;;;;;;9.33;8.43;;;;;;;26.63;42.49;101086.13;4969242;28;20622;-74
2021/08/05 09:05:51;;;;;;;9.03;8.33;;;;;;;26.08;43.62;101075.03;4970379;28;20224;-75
2021/08/05 09:08:18;;;;;;;9.63;8.83;;;;;;;26.11;42.94;101082.59;4972941;28;20217;-75
2021/08/05 09:10:45;;;;;;;9.18;8.38;;;;;;;26.93;43.03;101076.09;4967998;28;20468;-76
2021/08/05 09:13:11;;;;;;;7.57;6.83;;;;;;;27.30;42.42;101090.16;4969534;28;20657;-76
2021/08/05 09:15:40;;;;;;;8.03;7.43;;;;;;;26.18;42.96;101085.66;4968091;28;20216;-75
2021/08/05 09:18:25;;;;;;;8.00;7.37;;;;;;;26.68;41.33;101083.25;4969816;28;20266;-76
2021/08/05 09:21:11;;;;;;;9.17;7.40;;;;;;;27.17;40.68;101080.19;4969564;28;20209;-76
2021/08/05 09:23:50;;;;;;;8.33;7.63;;;;;;;26.79;40.53;101080.13;4969036;28;20221;-76
2021/08/05 09:26:39;;;;;;;8.13;7.00;;;;;;;26.28;41.64;101070.81;4969351;28;20683;-74
2021/08/05 09:29:11;;;;;;;7.80;7.10;;;;;;;26.91;42.21;101072.84;4967887;28;20224;-74
2021/08/05 09:31:42;;;;;;;7.37;6.77;;;;;;;27.32;42.57;101073.38;4969335;28;20239;-75
2021/08/05 09:34:11;;;;;;;9.03;8.17;;;;;;;27.97;40.39;101075.59;4966550;28;20234;-74
2021/08/05 09:36:38;;;;;;;9.50;8.60;;;;;;;27.76;41.97;101066.53;4970857;28;20370;-75
2021/08/05 09:39:19;;;;;;;10.07;9.27;;;;;;;27.50;43.73;101069.41;4967758;28;20246;-75
2021/08/05 09:41:57;;;;;;;10.20;9.27;;;;;;;28.10;42.76;101060.78;4969133;28;20664;-75
2021/08/05 09:44:24;;;;;;;10.83;9.67;;;;;;;27.63;42.41;101065.63;4969982;28;20212;-75
2021/08/05 09:47:01;;;;;;;8.93;8.13;;;;;;;28.19;39.44;101063.44;4970616;28;20461;-75
2021/08/05 09:49:29;;;;;;;6.93;6.23;;;;;;;28.39;36.86;101059.09;4970587;28;20491;-74
2021/08/05 09:51:56;;;;;;;6.67;6.10;;;;;;;28.37;39.12;101070.44;4971150;28;20243;-75
2021/08/05 09:54:24;;;;;;;8.37;7.50;;;;;;;27.27;39.92;101072.41;4971098;28;20250;-74
2021/08/05 09:56:55;;;;;;;7.70;6.23;;;;;;;27.17;41.67;101069.22;4971551;28;20250;-75
2021/08/05 09:59:21;;;;;;;7.37;6.63;;;;;;;26.99;41.31;101060.25;4967569;28;20304;-74
2021/08/05 10:01:57;;;;;;;7.13;6.47;;;;;;;28.28;39.26;101058.72;4964550;28;20225;-74
2021/08/05 10:04:25;;;;;;;10.33;7.37;;;;;;;28.36;37.91;101062.53;4967745;28;21129;-74
2021/08/05 10:06:57;;;;;;;8.70;7.83;;;;;;;27.87;39.99;101058.72;4969280;28;20672;-74
2021/08/05 10:09:24;;;;;;;7.78;7.18;;;;;;;27.18;41.67;101054.38;4968472;28;20874;-75
2021/08/05 10:11:51;;;;;;;7.10;6.50;;;;;;;28.66;38.24;101044.75;4970160;28;20230;-75
2021/08/05 10:14:21;;;;;;;6.77;6.27;;;;;;;28.22;38.43;101040.81;4967551;28;20222;-75
2021/08/05 10:16:48;;;;;;;6.70;6.20;;;;;;;27.91;38.25;101046.72;4972557;28;20713;-75
2021/08/05 10:19:18;;;;;;;6.50;5.80;;;;;;;29.15;37.93;101028.34;4968441;28;20345;-75
2021/08/05 10:21:45;;;;;;;7.10;6.50;;;;;;;27.38;38.67;101026.22;4969948;28;20274;-75
2021/08/05 10:24:11;;;;;;;5.17;4.77;;;;;;;26.29;42.05;101034.06;4969959;28;20221;-75
2021/08/05 10:26:39;;;;;;;5.17;4.67;;;;;;;25.81;42.76;101035.88;4971027;28;20689;-75
2021/08/05 10:29:06;;;;;;;5.93;5.33;;;;;;;25.65;41.55;101033.88;4969381;28;20564;-75
2021/08/05 10:31:33;;;;;;;6.33;5.63;;;;;;;24.46;42.90;101031.09;4969861;28;20217;-75
2021/08/05 10:33:59;;;;;;;5.37;4.63;;;;;;;25.82;43.57;101033.94;4969965;28;20235;-74
2021/08/05 10:36:25;;;;;;;5.33;4.93;;;;;;;26.99;40.83;101030.88;4966047;28;20303;-75
2021/08/05 10:38:52;;;;;;;6.70;6.10;;;;;;;27.67;39.45;101024.59;4969885;28;20260;-74
2021/08/05 10:41:18;;;;;;;7.60;7.07;;;;;;;27.34;41.14;101025.28;4970700;28;20238;-74
2021/08/05 10:43:46;;;;;;;7.13;6.43;;;;;;;27.06;40.66;101013.97;4969288;28;20345;-74
2021/08/05 10:46:12;;;;;;;6.40;5.90;;;;;;;27.20;40.67;101024.69;4966635;28;20225;-75
2021/08/05 10:48:39;;;;;;;7.63;6.83;;;;;;;27.35;41.62;101017.84;4967988;28;20238;-74
2021/08/05 10:51:06;;;;;;;7.55;6.95;;;;;;;27.42;40.84;101023.59;4966530;28;20479;-73
2021/08/05 10:53:43;;;;;;;7.27;6.67;;;;;;;28.15;39.70;101013.88;4968902;28;20357;-74
2021/08/05 10:56:24;;;;;;;7.17;6.67;;;;;;;28.02;38.85;101006.72;4969214;28;20226;-74
2021/08/05 10:59:12;;;;;;;7.90;7.10;;;;;;;28.69;39.41;101002.03;4964715;28;20606;-74
2021/08/05 11:01:53;;;;;;;6.47;5.97;;;;;;;28.91;38.50;101007.13;4969473;28;20223;-74
2021/08/05 11:04:45;;;;;;;7.70;7.00;;;;;;;29.01;39.10;100998.44;4967260;28;20238;-74
2021/08/05 11:07:29;;;;;;;7.57;7.00;;;;;;;27.93;37.70;100997.75;4962845;28;20309;-74
2021/08/05 11:10:34;;;;;;;6.90;6.30;;;;;;;27.20;40.48;101000.81;4968426;28;20268;-74
2021/08/05 11:13:15;;;;;;;7.07;6.47;;;;;;;28.22;38.74;100998.78;4969298;28;20214;-74
2021/08/05 11:15:47;;;;;;;7.43;6.73;;;;;;;27.97;41.55;100998.69;4968615;28;20222;-74
2021/08/05 11:18:31;;;;;;;9.10;8.20;;;;;;;27.87;39.75;100993.59;4966430;28;20329;-74
2021/08/05 11:21:24;;;;;;;8.47;7.77;;;;;;;27.84;42.03;100989.59;4969536;28;20261;-74